Česky Dansk Deutsch English Español Suomi Français Magyar Italiano Nederlands norsk Polski Português svenska Türkçe

 

Het Weer

Krasnodar (Rusland)

00:30, 16 augustus 2016 (GMT)

NWNNE
WE
SWSSE
Home            
Krasnodar Anapa / Vitiazevo Adler Stavropol / Shpakovskoye Rostov-Na-Donu Mineral'Nye Vody Donetsk Nalchik Simferopol Elista Zaporizhzhia / Mokraya Trabzon Samsun / Carsamba Samsun Dnipropetrovs'k Merzifon Muhrani Krivyy Rih / Dnipropetrovs'k Tokat Volgograd Kars Erzincan Kharkiv

Om een weerknop op uw website of weblog te plaatsen, copieer onderstaande code en plak die in uw pagina. In het eerste vakje staat HTML-code, in het tweede vakje UBB-code.


Add to Google

Details

Wind speed:2 bf, 3.9 kn, 2 m/s, 4.5 miles/h, 7.2 km/h
Wind direction:NNE, 030°
Visibility:Greater than 10000 m, 10 km, 32800 ft, 6.2 miles
Clouds:CAVOC
Temperature:15°C, 59°F
Dew-point:14°C, 57°F
Atmospheric pressure:1016 hPa, 762.1 mmHg, 30.00 inHg, 1.003 atm
Relative humidity:93.7 %
METAR:URKK 160030Z 03002MPS CAVOK 15/14 Q1016 R23C/CLRD60 NOSIG RMK QFE759

Snelkoppelingen

Actuele weersinformatie van de hele wereld. Voeg locaties toe met het plus (+) symbool. Deze snelkoppelingen kunnen worden toegevoegd aan Google.

Lid van de Technetium groep

website free tracking
StatCounter NetStat W3C Validator

17-08-2022 07:21:36
astro.technetium.be money.technetium.be phote.technetium.be tafeltennistafel.technetium.be www.ligfiets.net